Jennifer — WDF6480 — position and weather

sailwx.info

Track history (hours):
 
Tides and Currents Weather Stations Pressure Air Temp Water Temp Dewpoint Dewpoint Depression Visibility Wind Speed Wind Dir Waves Ship Positions

Jennifer

Owner: John W. Stone Oil Distributor, L.L.C., Gretna, LA. More information available from US FCC via Universal Licensing System and Coast Guard Vessel Documentation Center.

Last reported at 2018-Apr-24 18:53 UTC. Time now 2018-Apr-25 04:56 UTC.
Position N 29°33' W 090°27'.

Length 17 m; draft 3 m.

Type: Tug. MMSI: 367474690.

Date/timePositionNaut miles runAvg speedWind from/ knotsBaromVisibWave heightAir tempDewpointWater temp
2018-Apr-24 18:53N 29°33' W 090°27'3 8.0
2018-Apr-24 18:30N 29°34' W 090°30'4 7.7
2018-Apr-24 18:00N 29°34' W 090°34'3 6.7
2018-Apr-24 17:30N 29°35' W 090°38'3 6.8
2018-Apr-24 16:59N 29°37' W 090°42'3 5.4
2018-Apr-24 16:30N 29°34' W 090°43'2 4.0
2018-Apr-24 16:00N 29°33' W 090°45'0 0.8
2018-Apr-24 15:30N 29°33' W 090°45'2 4.0
2018-Apr-24 15:00N 29°32' W 090°47'  
2018-Apr-21 06:33N 29°36' W 090°59'0 5.9
2018-Apr-21 06:29N 29°36' W 090°58'3 5.7
2018-Apr-21 05:58N 29°34' W 090°56'3 5.7
2018-Apr-21 05:26N 29°32' W 090°53'3 5.9
2018-Apr-21 05:00N 29°32' W 090°50'3 5.9
2018-Apr-21 04:30N 29°32' W 090°47'3 5.2
2018-Apr-21 04:00N 29°34' W 090°44'2 4.1
2018-Apr-21 03:30N 29°35' W 090°43'2 3.3
2018-Apr-21 03:00N 29°37' W 090°42'1 1.5
2018-Apr-21 02:30N 29°36' W 090°41'3 5.4
2018-Apr-21 02:00N 29°35' W 090°38'2 4.5
2018-Apr-21 01:28N 29°35' W 090°36'1 1.6
2018-Apr-21 01:00N 29°34' W 090°35'  
Track history (hours):
 
Tides and Currents Weather Stations Pressure Air Temp Water Temp Dewpoint Dewpoint Depression Visibility Wind Speed Wind Dir Waves Ship Positions

Jennifer

Owner: John W. Stone Oil Distributor, L.L.C., Gretna, LA. More information available from US FCC via Universal Licensing System and Coast Guard Vessel Documentation Center.

Last reported at 2018-Apr-24 18:53 UTC. Time now 2018-Apr-25 04:56 UTC.
Position N 29°33' W 090°27'.

Length 17 m; draft 3 m.

Type: Tug. MMSI: 367474690.

Date/timePositionNaut miles runAvg speedWind from/ knotsBaromVisibWave heightAir tempDewpointWater temp
2018-Apr-24 18:53N 29°33' W 090°27'3 8.0
2018-Apr-24 18:30N 29°34' W 090°30'4 7.7
2018-Apr-24 18:00N 29°34' W 090°34'3 6.7
2018-Apr-24 17:30N 29°35' W 090°38'3 6.8
2018-Apr-24 16:59N 29°37' W 090°42'3 5.4
2018-Apr-24 16:30N 29°34' W 090°43'2 4.0
2018-Apr-24 16:00N 29°33' W 090°45'0 0.8
2018-Apr-24 15:30N 29°33' W 090°45'2 4.0
2018-Apr-24 15:00N 29°32' W 090°47'  
2018-Apr-21 06:33N 29°36' W 090°59'0 5.9
2018-Apr-21 06:29N 29°36' W 090°58'3 5.7
2018-Apr-21 05:58N 29°34' W 090°56'3 5.7
2018-Apr-21 05:26N 29°32' W 090°53'3 5.9
2018-Apr-21 05:00N 29°32' W 090°50'3 5.9
2018-Apr-21 04:30N 29°32' W 090°47'3 5.2
2018-Apr-21 04:00N 29°34' W 090°44'2 4.1
2018-Apr-21 03:30N 29°35' W 090°43'2 3.3
2018-Apr-21 03:00N 29°37' W 090°42'1 1.5
2018-Apr-21 02:30N 29°36' W 090°41'3 5.4
2018-Apr-21 02:00N 29°35' W 090°38'2 4.5
2018-Apr-21 01:28N 29°35' W 090°36'1 1.6
2018-Apr-21 01:00N 29°34' W 090°35'  

Dump ship's entire track history